• Join FlightAware (Why Join?)
  • Login
  • US Flag 
06:09PM EST


 

Airport Tracker/Info


-or-


 

Live Flight TrackerFlight Track Log ✈ EJA929 ✈ 18-Aug-2013 ✈ KTYS - KECP

Flight Track Log - Related Links

Times and Time Zones

All times are in EDT time to prevent confusion due to time zone crossing. See the EJA929 flight status page for this flight to view local times or setup timezone preferences in your user account.

Time Position Orientation Groundspeed Altitude Reporting Facility
EDT Latitude Longitude Course Direction KTS MPH feet Rate Location/Type
08:03AM 35.8331 -83.9542 208° Southwest 203 234 2,800  Level Atlanta Center
08:04AM 35.7933 -83.9183 144° Southeast 232 267 7,000 3,180 Climbing Atlanta Center
08:05AM 35.7308 -83.9594 208° Southwest 185 213 9,200 2,040 Climbing Atlanta Center
08:06AM 35.6578 -84.0031 206° Southwest 237 273 11,100 1,860 Climbing Atlanta Center
08:07AM 35.5806 -84.0642 213° Southwest 294 338 13,000 1,860 Climbing Atlanta Center
08:08AM 35.5075 -84.1408 221° Southwest 325 374 14,900 1,860 Climbing Atlanta Center
08:09AM 35.1823 -84.3173 208° Southwest  Level FlightAware Approximate
08:09AM 35.4344 -84.2172 220° Southwest 342 394 16,800  Level Atlanta Center
08:10AM 35.3633 -84.2986 223° Southwest 352 405 18,500 1,500 Climbing Atlanta Center
08:11AM 35.2881 -84.3797 221° Southwest 357 411 19,900 1,200 Climbing Atlanta Center
08:12AM 35.1897 -84.4250 201° Southwest 368 423 21,000 1,140 Climbing Atlanta Center
08:13AM 35.0853 -84.4653 198° South 379 436 22,200 1,380 Climbing Atlanta Center
08:14AM 34.9831 -84.5078 199° South 391 450 23,800 1,500 Climbing Atlanta Center
08:15AM 34.8742 -84.5528 199° South 397 457 25,200 1,260 Climbing Atlanta Center
08:16AM 34.7697 -84.5925 197° South 402 463 26,400 900 Climbing Atlanta Center
08:17AM 34.6756 -84.6322 199° South 402 463 27,100 840 Climbing Atlanta Center
08:18AM 34.5669 -84.6744 198° South 407 468 28,100 900 Climbing Atlanta Center
08:19AM 34.4561 -84.7139 196° South 407 468 29,000 900 Climbing Atlanta Center
08:20AM 34.3411 -84.7533 196° South 417 480 30,000 1,020 Climbing Atlanta Center
08:21AM 34.2281 -84.7950 197° South 422 486 31,100 1,020 Climbing Atlanta Center
08:22AM 34.1111 -84.8342 195° South 429 494 32,100 1,080 Climbing Atlanta Center
08:23AM 34.0000 -84.8808 199° South 429 494 33,300 900 Climbing Atlanta Center
08:24AM 33.8831 -84.9222 196° South 435 501 34,000 300 Climbing Atlanta Center
08:25AM 33.7553 -84.9658 196° South 441 507 34,000  Level Atlanta Center
08:26AM 33.6361 -85.0044 195° South 441 507 34,000  Level Atlanta Center
08:27AM 33.5147 -85.0381 193° South 440 506 34,000  Level Atlanta Center
08:28AM 33.3975 -85.0639 190° South 440 506 34,000  Level Atlanta Center
08:29AM 33.2742 -85.0972 193° South 440 506 34,000  Level Atlanta Center
08:30AM 33.1592 -85.1231 191° South 435 501 34,000  Level Atlanta Center
08:31AM 33.0608 -85.1492 193° South 435 501 34,000 -300 Level Atlanta Center
08:32AM 32.9208 -85.1747 189° South 435 501 33,400 -900 Descending Atlanta Center
08:33AM 32.8014 -85.2053 192° South 424 488 32,200 -1,260 Descending Atlanta Center
08:34AM 32.6822 -85.2358 192° South 437 503 30,900 -1,080 Descending Atlanta Center
08:37AM 32.3772 -85.3081 191° South 469 540 28,500 -960 Descending Jacksonville Center
08:38AM 32.2556 -85.3394 192° South 464 534 27,600 -960 Descending Jacksonville Center
08:39AM 32.1319 -85.3703 192° South 464 534 26,600 -960 Descending Jacksonville Center
08:40AM 32.0061 -85.4014 192° South 459 528 25,700 -960 Descending Jacksonville Center
08:41AM 31.8800 -85.4344 193° South 459 528 24,700 -900 Descending Jacksonville Center
08:42AM 31.7542 -85.4628 191° South 464 534 24,000 -360 Descending Jacksonville Center
08:43AM 31.6367 -85.4914 192° South 453 521 24,000 -1,020 Level Jacksonville Center
08:44AM 31.5192 -85.5197 192° South 448 516 22,000 -2,400 Descending Jacksonville Center
08:45AM 31.4058 -85.5506 193° South 435 501 19,300 -2,820 Descending Jacksonville Center
08:46AM 31.2906 -85.5742 190° South 409 471 16,400 -3,000 Descending Jacksonville Center
08:47AM 31.1961 -85.6031 195° South 376 433 13,400 -2,820 Descending Jacksonville Center
08:48AM 31.1261 -85.6469 208° Southwest 313 360 10,800 -2,280 Descending Jacksonville Center
08:49AM 31.0644 -85.7011 217° Southwest 300 345 8,900 -1,980 Descending Jacksonville Center
08:50AM 31.0092 -85.7503 217° Southwest 275 316 6,900 -1,860 Descending Jacksonville Center
08:51AM 30.9517 -85.7969 215° Southwest 264 304 5,200 -1,500 Descending Jacksonville Center
08:52AM 30.8961 -85.8436 216° Southwest 258 297 4,000 -1,080 Descending Jacksonville Center
08:53AM 30.8364 -85.8997 219° Southwest 258 297 3,100 -540 Descending Jacksonville Center
08:54AM 30.7733 -85.9269 200° South 258 297 3,000 -60 Descending Jacksonville Center
08:55AM 30.7044 -85.9247 178° South 244 281 3,000  Level Jacksonville Center
08:56AM 30.6378 -85.9200 177° South 244 281 3,000  Level Jacksonville Center
08:57AM 30.5736 -85.8939 161° South 244 281 3,000 -60 Level Jacksonville Center
08:58AM 30.5136 -85.8631 156° South 239 275 2,900 -480 Descending Jacksonville Center
08:59AM 30.4661 -85.8425 160° South 216 249 2,100 -780 Descending Jacksonville Center
09:00AM 30.4289 -85.8267 160° South 178 205 1,400 -660 Descending Jacksonville Center
09:01AM 30.3958 -85.8114 158° South 147 169 800 -600 Descending Jacksonville Center
09:02AM 30.3692 -85.8008 161° South 133 153 200 -600 Descending Jacksonville Center